createdAt,value
2022-12-31T00:00:17.202Z,5.30
2022-12-31T00:05:20.599Z,6.45
2022-12-31T00:10:24.158Z,6.03
2022-12-31T00:15:28.733Z,6.78
2022-12-31T00:20:32.044Z,6.88
2022-12-31T00:25:36.958Z,7.07
2022-12-31T00:30:40.536Z,7.07
2022-12-31T00:35:43.847Z,7.28
2022-12-31T00:40:47.440Z,7.38
2022-12-31T00:45:50.931Z,7.38
2022-12-31T00:50:56.162Z,7.68
2022-12-31T00:56:13.911Z,7.63
2022-12-31T01:01:20.125Z,8.55
2022-12-31T01:06:24.205Z,9.45
2022-12-31T01:11:30.137Z,11.43
2022-12-31T01:16:43.513Z,13.20
2022-12-31T01:21:48.505Z,12.32
2022-12-31T01:31:55.709Z,12.85
2022-12-31T01:36:59.100Z,11.15
2022-12-31T01:42:02.364Z,11.02
2022-12-31T01:47:13.378Z,8.55
2022-12-31T01:52:27.874Z,11.18
2022-12-31T01:57:32.278Z,12.27
2022-12-31T02:02:35.833Z,10.93
2022-12-31T02:07:40.301Z,13.60
2022-12-31T02:12:43.993Z,8.25
2022-12-31T02:18:21.060Z,13.52
2022-12-31T02:23:40.652Z,13.60
2022-12-31T02:28:56.178Z,11.27
2022-12-31T02:34:19.884Z,13.02
2022-12-31T02:39:24.237Z,12.07
2022-12-31T02:44:40.521Z,10.68
2022-12-31T02:49:50.284Z,10.13
2022-12-31T02:55:25.915Z,11.50
2022-12-31T03:00:51.064Z,11.73
2022-12-31T03:05:54.833Z,12.45
2022-12-31T03:10:58.809Z,10.52
2022-12-31T03:16:02.829Z,13.85
2022-12-31T03:21:31.386Z,10.23
2022-12-31T03:26:36.818Z,12.50
2022-12-31T03:31:40.973Z,15.45
2022-12-31T03:36:44.455Z,15.32
2022-12-31T03:41:47.752Z,14.15
2022-12-31T03:46:51.206Z,16.38
2022-12-31T03:52:04.827Z,14.77
2022-12-31T03:57:19.452Z,14.20
2022-12-31T04:02:28.322Z,15.68
2022-12-31T04:07:32.755Z,15.07
2022-12-31T04:12:46.330Z,14.93
2022-12-31T04:17:50.161Z,11.88
2022-12-31T04:22:54.011Z,12.93
2022-12-31T04:27:57.344Z,11.25
2022-12-31T04:33:00.742Z,11.88
2022-12-31T04:38:04.388Z,10.60
2022-12-31T04:43:16.604Z,10.82
2022-12-31T04:48:20.893Z,9.02
2022-12-31T04:53:25.600Z,9.85
2022-12-31T04:58:29.121Z,10.40
2022-12-31T05:03:34.173Z,10.38
2022-12-31T05:08:38.069Z,8.55
2022-12-31T05:13:41.399Z,11.88
2022-12-31T05:18:44.813Z,11.05
2022-12-31T05:23:48.871Z,12.77
2022-12-31T05:28:52.180Z,10.40
2022-12-31T05:33:55.566Z,10.48
2022-12-31T05:38:59.027Z,8.38
2022-12-31T05:44:12.403Z,10.68
2022-12-31T05:49:16.098Z,11.45
2022-12-31T05:54:19.757Z,11.67
2022-12-31T05:59:23.209Z,9.98
2022-12-31T06:04:26.876Z,9.88
2022-12-31T06:14:45.890Z,10.55
2022-12-31T06:19:49.529Z,8.85
2022-12-31T06:24:52.885Z,9.38
2022-12-31T06:29:56.376Z,9.18
2022-12-31T06:34:59.857Z,9.77
2022-12-31T06:40:04.100Z,8.43
2022-12-31T06:45:18.100Z,10.18
2022-12-31T06:50:31.893Z,10.77
2022-12-31T06:55:35.728Z,9.90
2022-12-31T07:00:41.915Z,8.80
2022-12-31T07:05:53.565Z,10.82
2022-12-31T07:11:07.158Z,10.32
2022-12-31T07:16:20.666Z,11.35
2022-12-31T07:21:35.867Z,11.27
2022-12-31T07:27:10.430Z,10.80
2022-12-31T07:32:26.300Z,10.82
2022-12-31T07:37:46.493Z,8.98
2022-12-31T07:43:14.247Z,9.00
2022-12-31T07:48:26.549Z,11.83
2022-12-31T07:53:30.350Z,12.27
2022-12-31T07:59:10.527Z,13.65
2022-12-31T08:04:45.181Z,14.50
2022-12-31T08:09:54.717Z,14.00
2022-12-31T08:14:58.183Z,13.32
2022-12-31T08:20:01.764Z,15.00
2022-12-31T08:25:18.013Z,11.70
2022-12-31T08:30:22.613Z,13.18
2022-12-31T08:35:28.588Z,12.75
2022-12-31T08:40:52.086Z,13.20
2022-12-31T08:45:57.594Z,13.68
2022-12-31T08:51:01.203Z,13.15
2022-12-31T08:56:35.210Z,12.77
2022-12-31T09:02:14.994Z,12.77
2022-12-31T09:07:29.964Z,13.43
2022-12-31T09:12:47.738Z,15.30
2022-12-31T09:17:53.058Z,13.82
2022-12-31T09:22:58.063Z,13.05
2022-12-31T09:28:16.789Z,14.13
2022-12-31T09:33:37.589Z,13.02
2022-12-31T09:38:56.843Z,14.52
2022-12-31T09:44:37.717Z,12.55
2022-12-31T09:50:23.962Z,15.95
2022-12-31T09:55:58.226Z,11.02
2022-12-31T10:01:30.516Z,18.52
2022-12-31T10:06:52.459Z,12.13
2022-12-31T10:12:15.085Z,18.95
2022-12-31T10:17:51.943Z,12.38
2022-12-31T10:23:18.298Z,11.77
2022-12-31T10:28:52.486Z,12.05
2022-12-31T10:34:15.065Z,12.63
2022-12-31T10:39:40.177Z,10.88
2022-12-31T10:45:01.333Z,11.30
2022-12-31T10:50:23.530Z,14.43
2022-12-31T10:55:33.879Z,12.15
2022-12-31T11:01:10.425Z,11.68
2022-12-31T11:06:47.564Z,12.85
2022-12-31T11:12:05.060Z,12.65
2022-12-31T11:17:32.253Z,11.27
2022-12-31T11:22:53.416Z,9.57
2022-12-31T11:28:19.719Z,12.38
2022-12-31T11:33:50.160Z,12.63
2022-12-31T11:39:16.298Z,12.02
2022-12-31T11:44:36.916Z,13.10
2022-12-31T11:50:18.030Z,11.77
2022-12-31T11:55:43.309Z,11.77
2022-12-31T12:00:56.656Z,11.88
2022-12-31T12:06:00.596Z,12.57
2022-12-31T12:11:14.412Z,13.98
2022-12-31T12:16:17.975Z,13.93
2022-12-31T12:21:26.517Z,14.60
2022-12-31T12:26:39.004Z,14.93
2022-12-31T12:32:25.895Z,15.80
2022-12-31T12:37:39.169Z,14.65
2022-12-31T12:42:54.418Z,17.48
2022-12-31T12:48:03.420Z,16.05
2022-12-31T12:53:32.429Z,12.98
2022-12-31T12:58:44.917Z,15.18
2022-12-31T13:04:34.741Z,15.85
2022-12-31T13:09:38.774Z,13.63
2022-12-31T13:15:12.434Z,14.13
2022-12-31T13:20:27.583Z,14.00
2022-12-31T13:25:38.921Z,12.88
2022-12-31T13:31:06.967Z,12.30
2022-12-31T13:36:16.397Z,14.70
2022-12-31T13:41:31.177Z,13.20
2022-12-31T13:47:15.993Z,14.75
2022-12-31T13:52:31.575Z,15.67
2022-12-31T13:57:49.727Z,14.30
2022-12-31T14:03:12.461Z,14.13
2022-12-31T14:08:16.641Z,13.98
2022-12-31T14:13:47.863Z,15.00
2022-12-31T14:19:31.130Z,12.38
2022-12-31T14:24:50.658Z,12.50
2022-12-31T14:30:04.696Z,11.70
2022-12-31T14:35:38.578Z,10.13
2022-12-31T14:41:07.776Z,11.85
2022-12-31T14:46:17.505Z,12.90
2022-12-31T14:51:21.065Z,11.20
2022-12-31T14:56:32.276Z,12.63
2022-12-31T15:01:46.071Z,12.70
2022-12-31T15:07:00.482Z,12.30
2022-12-31T15:12:41.413Z,13.20
2022-12-31T15:18:16.221Z,13.02
2022-12-31T15:23:43.290Z,14.53
2022-12-31T15:28:58.710Z,11.30
2022-12-31T15:34:33.841Z,15.32
2022-12-31T15:39:40.597Z,10.43
2022-12-31T15:45:01.380Z,12.10
2022-12-31T15:50:19.544Z,10.13
2022-12-31T15:55:22.772Z,13.13
2022-12-31T16:00:27.004Z,11.73
2022-12-31T16:05:35.034Z,10.55
2022-12-31T16:10:38.290Z,11.88
2022-12-31T16:16:02.853Z,11.25
2022-12-31T16:21:06.427Z,12.75
2022-12-31T16:26:11.880Z,11.73
2022-12-31T16:31:20.528Z,12.05
2022-12-31T16:36:24.569Z,17.77
2022-12-31T16:41:42.658Z,14.65
2022-12-31T16:46:46.106Z,12.93
2022-12-31T16:51:50.450Z,9.60
2022-12-31T16:56:54.876Z,10.45
2022-12-31T17:02:01.347Z,11.13
2022-12-31T17:07:32.663Z,9.55
2022-12-31T17:13:25.014Z,9.13
2022-12-31T17:18:08.351Z,10.60
2022-12-31T17:23:24.814Z,14.27
2022-12-31T17:28:33.191Z,11.40
2022-12-31T17:33:36.473Z,11.90
2022-12-31T17:38:39.871Z,11.75
2022-12-31T17:43:43.706Z,11.63
2022-12-31T17:49:02.251Z,10.55
2022-12-31T17:54:17.958Z,9.55
2022-12-31T17:59:30.401Z,9.60
2022-12-31T18:04:33.781Z,9.48
2022-12-31T18:09:37.109Z,9.15
2022-12-31T18:14:41.766Z,10.13
2022-12-31T18:20:04.808Z,9.52
2022-12-31T18:25:23.617Z,10.10
2022-12-31T18:30:29.562Z,10.00
2022-12-31T18:41:09.362Z,9.67
2022-12-31T18:46:18.250Z,10.48
2022-12-31T18:51:31.450Z,9.57
2022-12-31T18:56:35.344Z,8.65
2022-12-31T19:01:40.663Z,9.10
2022-12-31T19:06:44.472Z,8.45
2022-12-31T19:11:49.082Z,8.63
2022-12-31T19:16:54.382Z,8.88
2022-12-31T19:21:57.887Z,10.27
2022-12-31T19:27:01.729Z,10.95
2022-12-31T19:32:05.361Z,12.68
2022-12-31T19:37:15.103Z,11.02
2022-12-31T19:42:28.343Z,12.75
2022-12-31T19:47:37.631Z,20.10
2022-12-31T19:52:41.590Z,19.17
2022-12-31T19:57:44.968Z,13.60
2022-12-31T20:02:49.945Z,12.45
2022-12-31T20:07:53.366Z,6.03
2022-12-31T20:12:56.651Z,9.93
2022-12-31T20:18:01.033Z,7.60
2022-12-31T20:23:04.625Z,8.23
2022-12-31T20:28:08.163Z,7.43
2022-12-31T20:33:18.889Z,9.27
2022-12-31T20:38:22.791Z,10.65
2022-12-31T20:43:26.047Z,9.57
2022-12-31T20:48:29.304Z,8.05
2022-12-31T20:53:32.716Z,8.15
2022-12-31T20:58:46.101Z,8.00
2022-12-31T21:04:06.868Z,10.10
2022-12-31T21:09:10.908Z,12.75
2022-12-31T21:14:18.867Z,10.90
2022-12-31T21:19:29.297Z,9.02
2022-12-31T21:24:32.562Z,9.02
2022-12-31T21:30:01.673Z,8.95
2022-12-31T21:35:40.260Z,8.40
2022-12-31T21:40:34.473Z,6.57
2022-12-31T21:45:38.594Z,7.93
2022-12-31T21:50:42.107Z,7.80
2022-12-31T21:56:05.227Z,6.82
2022-12-31T22:01:30.128Z,7.63
2022-12-31T22:06:36.518Z,7.70
2022-12-31T22:11:39.989Z,9.07
2022-12-31T22:16:43.395Z,7.32
2022-12-31T22:21:46.766Z,7.78
2022-12-31T22:26:50.127Z,8.73
2022-12-31T22:32:03.454Z,8.48
2022-12-31T22:37:35.330Z,9.05
2022-12-31T22:42:29.926Z,8.10
2022-12-31T22:47:36.332Z,7.65
2022-12-31T22:52:39.686Z,10.15
2022-12-31T22:57:43.103Z,14.38
2022-12-31T23:02:46.987Z,20.33
2022-12-31T23:08:00.534Z,11.68
2022-12-31T23:13:22.206Z,9.35
2022-12-31T23:18:44.186Z,11.27
2022-12-31T23:23:57.466Z,12.25
2022-12-31T23:29:01.817Z,11.00
2022-12-31T23:34:05.309Z,14.43
2022-12-31T23:39:09.053Z,12.43
2022-12-31T23:44:15.220Z,11.05
2022-12-31T23:49:18.985Z,9.07
2022-12-31T23:54:22.384Z,8.25
2022-12-31T23:59:25.660Z,10.25
